sensor_id;sensor_type;location;lat;lon;timestamp;pressure;altitude;pressure_sealevel;temperature;humidity
80149;BME280;69473;42.426;26.644;2023-12-14T00:01:56;98239.16;;;7.01;100.00
80149;BME280;69473;42.426;26.644;2023-12-14T00:04:22;98255.44;;;7.06;100.00
80149;BME280;69473;42.426;26.644;2023-12-14T00:06:48;98247.72;;;7.02;100.00
80149;BME280;69473;42.426;26.644;2023-12-14T00:09:13;98252.88;;;7.09;100.00
80149;BME280;69473;42.426;26.644;2023-12-14T00:11:39;98251.16;;;7.24;100.00
80149;BME280;69473;42.426;26.644;2023-12-14T00:14:05;98253.72;;;7.27;100.00
80149;BME280;69473;42.426;26.644;2023-12-14T00:16:31;98253.72;;;7.30;100.00
80149;BME280;69473;42.426;26.644;2023-12-14T00:18:57;98258.00;;;7.28;100.00
80149;BME280;69473;42.426;26.644;2023-12-14T00:21:22;98261.44;;;7.27;100.00
80149;BME280;69473;42.426;26.644;2023-12-14T00:23:48;98259.69;;;7.29;100.00
80149;BME280;69473;42.426;26.644;2023-12-14T00:26:14;98250.28;;;7.32;100.00
80149;BME280;69473;42.426;26.644;2023-12-14T00:28:39;98251.13;;;7.30;100.00
80149;BME280;69473;42.426;26.644;2023-12-14T00:31:05;98250.28;;;7.25;100.00
80149;BME280;69473;42.426;26.644;2023-12-14T00:33:31;98253.72;;;7.27;100.00
80149;BME280;69473;42.426;26.644;2023-12-14T00:35:57;98256.28;;;7.27;100.00
80149;BME280;69473;42.426;26.644;2023-12-14T00:38:23;98260.56;;;7.31;100.00
80149;BME280;69473;42.426;26.644;2023-12-14T00:40:48;98258.00;;;7.31;100.00
80149;BME280;69473;42.426;26.644;2023-12-14T00:43:14;98271.75;;;7.33;100.00
80149;BME280;69473;42.426;26.644;2023-12-14T00:45:39;98271.75;;;7.33;100.00
80149;BME280;69473;42.426;26.644;2023-12-14T00:48:06;98265.75;;;7.29;100.00
80149;BME280;69473;42.426;26.644;2023-12-14T00:50:32;98270.00;;;7.35;100.00
80149;BME280;69473;42.426;26.644;2023-12-14T00:52:58;98270.88;;;7.35;100.00
80149;BME280;69473;42.426;26.644;2023-12-14T00:55:24;98250.25;;;7.40;100.00
80149;BME280;69473;42.426;26.644;2023-12-14T00:57:49;98251.13;;;7.42;100.00
80149;BME280;69473;42.426;26.644;2023-12-14T01:00:15;98248.53;;;7.39;100.00
80149;BME280;69473;42.426;26.644;2023-12-14T01:02:41;98234.81;;;7.38;100.00
80149;BME280;69473;42.426;26.644;2023-12-14T01:05:07;98243.38;;;7.37;100.00
80149;BME280;69473;42.426;26.644;2023-12-14T01:07:33;98251.13;;;7.33;100.00
80149;BME280;69473;42.426;26.644;2023-12-14T01:09:58;98249.38;;;7.32;100.00
80149;BME280;69473;42.426;26.644;2023-12-14T01:12:24;98244.22;;;7.35;100.00
80149;BME280;69473;42.426;26.644;2023-12-14T01:14:49;98249.38;;;7.32;100.00
80149;BME280;69473;42.426;26.644;2023-12-14T01:17:15;98248.56;;;7.30;100.00
80149;BME280;69473;42.426;26.644;2023-12-14T01:19:40;98241.66;;;7.26;100.00
80149;BME280;69473;42.426;26.644;2023-12-14T01:22:06;98249.41;;;7.26;100.00
80149;BME280;69473;42.426;26.644;2023-12-14T01:24:32;98254.56;;;7.23;100.00
80149;BME280;69473;42.426;26.644;2023-12-14T01:26:58;98249.44;;;7.20;100.00
80149;BME280;69473;42.426;26.644;2023-12-14T01:29:23;98258.00;;;7.18;100.00
80149;BME280;69473;42.426;26.644;2023-12-14T01:31:49;98254.59;;;7.13;100.00
80149;BME280;69473;42.426;26.644;2023-12-14T01:34:15;98252.03;;;7.10;100.00
80149;BME280;69473;42.426;26.644;2023-12-14T01:36:41;98248.56;;;7.08;100.00
80149;BME280;69473;42.426;26.644;2023-12-14T01:39:07;98246.00;;;6.99;100.00
80149;BME280;69473;42.426;26.644;2023-12-14T01:41:33;98240.84;;;6.87;100.00
80149;BME280;69473;42.426;26.644;2023-12-14T01:43:59;98241.72;;;6.72;100.00
80149;BME280;69473;42.426;26.644;2023-12-14T01:46:24;98239.13;;;6.61;100.00
80149;BME280;69473;42.426;26.644;2023-12-14T01:48:50;98241.69;;;6.49;100.00
80149;BME280;69473;42.426;26.644;2023-12-14T01:51:17;98239.97;;;6.43;100.00
80149;BME280;69473;42.426;26.644;2023-12-14T01:53:43;98235.66;;;6.38;100.00
80149;BME280;69473;42.426;26.644;2023-12-14T01:56:08;98218.50;;;6.31;100.00
80149;BME280;69473;42.426;26.644;2023-12-14T01:58:34;98219.38;;;6.33;100.00
80149;BME280;69473;42.426;26.644;2023-12-14T02:03:54;98209.91;;;6.32;100.00
80149;BME280;69473;42.426;26.644;2023-12-14T02:06:20;98218.50;;;6.37;100.00
80149;BME280;69473;42.426;26.644;2023-12-14T02:08:46;98213.34;;;6.28;100.00
80149;BME280;69473;42.426;26.644;2023-12-14T02:11:12;98227.91;;;6.29;100.00
80149;BME280;69473;42.426;26.644;2023-12-14T02:13:38;98229.66;;;6.27;100.00
80149;BME280;69473;42.426;26.644;2023-12-14T02:16:04;98227.06;;;6.17;100.00
80149;BME280;69473;42.426;26.644;2023-12-14T02:18:29;98225.31;;;6.16;100.00
80149;BME280;69473;42.426;26.644;2023-12-14T02:20:55;98227.03;;;6.11;100.00
80149;BME280;69473;42.426;26.644;2023-12-14T02:23:20;98227.88;;;6.09;100.00
80149;BME280;69473;42.426;26.644;2023-12-14T02:25:46;98223.56;;;6.00;100.00
80149;BME280;69473;42.426;26.644;2023-12-14T02:28:12;98216.72;;;5.96;100.00
80149;BME280;69473;42.426;26.644;2023-12-14T02:30:37;98208.97;;;5.93;100.00
80149;BME280;69473;42.426;26.644;2023-12-14T02:33:03;98213.22;;;5.91;100.00
80149;BME280;69473;42.426;26.644;2023-12-14T02:35:29;98216.66;;;5.87;100.00
80149;BME280;69473;42.426;26.644;2023-12-14T02:37:54;98209.75;;;5.73;100.00
80149;BME280;69473;42.426;26.644;2023-12-14T02:40:20;98216.50;;;5.56;100.00
80149;BME280;69473;42.426;26.644;2023-12-14T02:42:45;98218.22;;;5.54;100.00
80149;BME280;69473;42.426;26.644;2023-12-14T02:45:11;98215.63;;;5.46;100.00
80149;BME280;69473;42.426;26.644;2023-12-14T02:47:36;98218.16;;;5.45;100.00
80149;BME280;69473;42.426;26.644;2023-12-14T02:50:02;98209.59;;;5.43;100.00
80149;BME280;69473;42.426;26.644;2023-12-14T02:52:28;98201.00;;;5.38;100.00
80149;BME280;69473;42.426;26.644;2023-12-14T02:54:53;98209.56;;;5.37;100.00
80149;BME280;69473;42.426;26.644;2023-12-14T02:57:19;98212.13;;;5.37;100.00
80149;BME280;69473;42.426;26.644;2023-12-14T02:59:45;98206.13;;;5.35;100.00
80149;BME280;69473;42.426;26.644;2023-12-14T03:02:10;98215.53;;;5.34;100.00
80149;BME280;69473;42.426;26.644;2023-12-14T03:04:39;98211.25;;;5.35;100.00
80149;BME280;69473;42.426;26.644;2023-12-14T03:07:05;98207.84;;;5.36;100.00
80149;BME280;69473;42.426;26.644;2023-12-14T03:09:31;98206.13;;;5.35;100.00
80149;BME280;69473;42.426;26.644;2023-12-14T03:11:57;98222.41;;;5.38;100.00
80149;BME280;69473;42.426;26.644;2023-12-14T03:14:24;98214.72;;;5.40;100.00
80149;BME280;69473;42.426;26.644;2023-12-14T03:16:50;98209.59;;;5.43;100.00
80149;BME280;69473;42.426;26.644;2023-12-14T03:19:16;98219.91;;;5.46;100.00
80149;BME280;69473;42.426;26.644;2023-12-14T03:21:42;98230.16;;;5.43;100.00
80149;BME280;69473;42.426;26.644;2023-12-14T03:24:08;98225.03;;;5.43;100.00
80149;BME280;69473;42.426;26.644;2023-12-14T03:26:35;98214.72;;;5.40;100.00
80149;BME280;69473;42.426;26.644;2023-12-14T03:29:00;98214.72;;;5.44;100.00
80149;BME280;69473;42.426;26.644;2023-12-14T03:31:26;98206.19;;;5.44;100.00
80149;BME280;69473;42.426;26.644;2023-12-14T03:33:52;98220.78;;;5.52;100.00
80149;BME280;69473;42.426;26.644;2023-12-14T03:36:17;98223.34;;;5.54;100.00
80149;BME280;69473;42.426;26.644;2023-12-14T03:38:43;98236.25;;;5.65;100.00
80149;BME280;69473;42.426;26.644;2023-12-14T03:41:08;98232.88;;;5.73;100.00
80149;BME280;69473;42.426;26.644;2023-12-14T03:43:34;98231.13;;;5.66;100.00
80149;BME280;69473;42.426;26.644;2023-12-14T03:45:59;98226.00;;;5.71;100.00
80149;BME280;69473;42.426;26.644;2023-12-14T03:48:25;98225.16;;;5.73;100.00
80149;BME280;69473;42.426;26.644;2023-12-14T03:50:51;98229.47;;;5.85;100.00
80149;BME280;69473;42.426;26.644;2023-12-14T03:53:16;98222.63;;;5.84;100.00
80149;BME280;69473;42.426;26.644;2023-12-14T03:55:42;98217.50;;;5.87;100.00
80149;BME280;69473;42.426;26.644;2023-12-14T03:58:07;98214.94;;;5.86;100.00
80149;BME280;69473;42.426;26.644;2023-12-14T04:00:33;98218.38;;;5.91;100.00
80149;BME280;69473;42.426;26.644;2023-12-14T04:02:59;98210.66;;;5.92;100.00
80149;BME280;69473;42.426;26.644;2023-12-14T04:05:24;98206.41;;;5.93;100.00
80149;BME280;69473;42.426;26.644;2023-12-14T04:07:50;98209.00;;;5.99;100.00
80149;BME280;69473;42.426;26.644;2023-12-14T04:10:15;98218.44;;;6.09;100.00
80149;BME280;69473;42.426;26.644;2023-12-14T04:12:41;98219.34;;;6.14;100.00
80149;BME280;69473;42.426;26.644;2023-12-14T04:15:09;98225.34;;;6.22;100.00
80149;BME280;69473;42.426;26.644;2023-12-14T04:17:35;98221.94;;;6.30;100.00
80149;BME280;69473;42.426;26.644;2023-12-14T04:20:01;98216.81;;;6.36;100.00
80149;BME280;69473;42.426;26.644;2023-12-14T04:22:29;98229.66;;;6.40;100.00
80149;BME280;69473;42.426;26.644;2023-12-14T04:24:54;98225.38;;;6.47;100.00
80149;BME280;69473;42.426;26.644;2023-12-14T04:27:20;98206.53;;;6.51;100.00
80149;BME280;69473;42.426;26.644;2023-12-14T04:29:46;98222.84;;;6.61;100.00
80149;BME280;69473;42.426;26.644;2023-12-14T04:32:11;98223.69;;;6.64;100.00
80149;BME280;69473;42.426;26.644;2023-12-14T04:34:37;98227.13;;;6.74;100.00
80149;BME280;69473;42.426;26.644;2023-12-14T04:37:03;98215.09;;;6.75;100.00
80149;BME280;69473;42.426;26.644;2023-12-14T04:39:29;98210.81;;;6.67;100.00
80149;BME280;69473;42.426;26.644;2023-12-14T04:41:54;98211.69;;;6.68;100.00
80149;BME280;69473;42.426;26.644;2023-12-14T04:44:20;98215.97;;;6.74;100.00
80149;BME280;69473;42.426;26.644;2023-12-14T04:46:49;98205.69;;;6.67;100.00
80149;BME280;69473;42.426;26.644;2023-12-14T04:49:16;98215.09;;;6.71;100.00
80149;BME280;69473;42.426;26.644;2023-12-14T04:51:42;98227.13;;;6.76;100.00
80149;BME280;69473;42.426;26.644;2023-12-14T04:54:08;98213.41;;;6.77;100.00
80149;BME280;69473;42.426;26.644;2023-12-14T04:56:34;98215.09;;;6.78;100.00
80149;BME280;69473;42.426;26.644;2023-12-14T04:59:00;98215.09;;;6.81;100.00
80149;BME280;69473;42.426;26.644;2023-12-14T05:01:25;98225.41;;;6.75;100.00
80149;BME280;69473;42.426;26.644;2023-12-14T05:03:54;98234.00;;;6.74;100.00
80149;BME280;69473;42.426;26.644;2023-12-14T05:06:21;98225.41;;;6.75;100.00
80149;BME280;69473;42.426;26.644;2023-12-14T05:08:47;98228.00;;;6.73;100.00
80149;BME280;69473;42.426;26.644;2023-12-14T05:11:13;98232.25;;;6.82;100.00
80149;BME280;69473;42.426;26.644;2023-12-14T05:13:39;98213.41;;;6.89;100.00
80149;BME280;69473;42.426;26.644;2023-12-14T05:16:05;98206.50;;;6.91;100.00
80149;BME280;69473;42.426;26.644;2023-12-14T05:18:31;98206.50;;;6.94;100.00
80149;BME280;69473;42.426;26.644;2023-12-14T05:20:57;98197.94;;;6.92;100.00
80149;BME280;69473;42.426;26.644;2023-12-14T05:23:23;98208.25;;;6.89;100.00
80149;BME280;69473;42.426;26.644;2023-12-14T05:25:49;98196.22;;;6.85;100.00
80149;BME280;69473;42.426;26.644;2023-12-14T05:28:15;98192.81;;;6.83;100.00
80149;BME280;69473;42.426;26.644;2023-12-14T05:30:41;98192.81;;;6.86;100.00
80149;BME280;69473;42.426;26.644;2023-12-14T05:33:07;98206.50;;;6.91;100.00
80149;BME280;69473;42.426;26.644;2023-12-14T05:35:32;98197.94;;;6.95;100.00
80149;BME280;69473;42.426;26.644;2023-12-14T05:37:58;98199.66;;;6.96;100.00
80149;BME280;69473;42.426;26.644;2023-12-14T05:40:24;98198.78;;;6.96;100.00
80149;BME280;69473;42.426;26.644;2023-12-14T05:42:49;98187.63;;;7.01;100.00
80149;BME280;69473;42.426;26.644;2023-12-14T05:45:15;98186.75;;;7.04;100.00
80149;BME280;69473;42.426;26.644;2023-12-14T05:47:41;98185.88;;;7.06;100.00
80149;BME280;69473;42.426;26.644;2023-12-14T05:50:07;98197.06;;;7.02;100.00
80149;BME280;69473;42.426;26.644;2023-12-14T05:52:35;98188.50;;;7.02;100.00
80149;BME280;69473;42.426;26.644;2023-12-14T05:55:01;98195.34;;;7.13;100.00
80149;BME280;69473;42.426;26.644;2023-12-14T05:57:27;98192.78;;;7.13;100.00
80149;BME280;69473;42.426;26.644;2023-12-14T05:59:52;98191.88;;;7.10;100.00
80149;BME280;69473;42.426;26.644;2023-12-14T06:02:18;98206.50;;;7.06;100.00
80149;BME280;69473;42.426;26.644;2023-12-14T06:04:44;98209.09;;;7.08;100.00
80149;BME280;69473;42.426;26.644;2023-12-14T06:07:10;98209.94;;;7.11;100.00
80149;BME280;69473;42.426;26.644;2023-12-14T06:09:35;98210.78;;;7.09;100.00
80149;BME280;69473;42.426;26.644;2023-12-14T06:12:02;98218.53;;;7.07;100.00
80149;BME280;69473;42.426;26.644;2023-12-14T06:14:28;98223.69;;;7.07;100.00
80149;BME280;69473;42.426;26.644;2023-12-14T06:16:54;98218.53;;;6.98;100.00
80149;BME280;69473;42.426;26.644;2023-12-14T06:19:20;98216.81;;;7.03;100.00
80149;BME280;69473;42.426;26.644;2023-12-14T06:21:46;98213.38;;;7.10;100.00
80149;BME280;69473;42.426;26.644;2023-12-14T06:24:11;98216.78;;;7.12;100.00
80149;BME280;69473;42.426;26.644;2023-12-14T06:26:44;98216.78;;;7.15;100.00
80149;BME280;69473;42.426;26.644;2023-12-14T06:29:11;98212.50;;;7.16;100.00
80149;BME280;69473;42.426;26.644;2023-12-14T06:31:38;98213.38;;;7.20;100.00
80149;BME280;69473;42.426;26.644;2023-12-14T06:34:04;98221.94;;;7.22;100.00
80149;BME280;69473;42.426;26.644;2023-12-14T06:36:30;98220.22;;;7.22;100.00
80149;BME280;69473;42.426;26.644;2023-12-14T06:38:57;98226.22;;;7.30;100.00
80149;BME280;69473;42.426;26.644;2023-12-14T06:41:24;98221.06;;;7.26;100.00
80149;BME280;69473;42.426;26.644;2023-12-14T06:43:51;98230.50;;;7.36;100.00
80149;BME280;69473;42.426;26.644;2023-12-14T06:46:17;98232.19;;;7.43;100.00
80149;BME280;69473;42.426;26.644;2023-12-14T06:48:43;98244.22;;;7.47;100.00
80149;BME280;69473;42.426;26.644;2023-12-14T06:51:08;98251.94;;;7.58;100.00
80149;BME280;69473;42.426;26.644;2023-12-14T06:53:34;98245.91;;;7.57;100.00
80149;BME280;69473;42.426;26.644;2023-12-14T06:56:00;98251.09;;;7.51;100.00
80149;BME280;69473;42.426;26.644;2023-12-14T06:58:26;98255.34;;;7.54;100.00
80149;BME280;69473;42.426;26.644;2023-12-14T07:00:52;98250.19;;;7.57;100.00
80149;BME280;69473;42.426;26.644;2023-12-14T07:03:18;98248.50;;;7.63;100.00
80149;BME280;69473;42.426;26.644;2023-12-14T07:05:43;98255.31;;;7.66;100.00
80149;BME280;69473;42.426;26.644;2023-12-14T07:08:09;98246.75;;;7.64;100.00
80149;BME280;69473;42.426;26.644;2023-12-14T07:10:35;98251.06;;;7.60;100.00
80149;BME280;69473;42.426;26.644;2023-12-14T07:13:00;98264.78;;;7.62;100.00
80149;BME280;69473;42.426;26.644;2023-12-14T07:15:26;98257.94;;;7.61;100.00
80149;BME280;69473;42.426;26.644;2023-12-14T07:17:51;98269.13;;;7.63;100.00
80149;BME280;69473;42.426;26.644;2023-12-14T07:20:17;98268.25;;;7.61;100.00
80149;BME280;69473;42.426;26.644;2023-12-14T07:22:42;98263.06;;;7.71;100.00
80149;BME280;69473;42.426;26.644;2023-12-14T07:25:08;98261.34;;;7.76;100.00
80149;BME280;69473;42.426;26.644;2023-12-14T07:27:34;98266.50;;;7.76;100.00
80149;BME280;69473;42.426;26.644;2023-12-14T07:30:00;98276.81;;;7.79;100.00
80149;BME280;69473;42.426;26.644;2023-12-14T07:32:25;98265.63;;;7.80;100.00
80149;BME280;69473;42.426;26.644;2023-12-14T07:34:52;98269.88;;;7.87;100.00
80149;BME280;69473;42.426;26.644;2023-12-14T07:37:18;98270.75;;;7.89;100.00
80149;BME280;69473;42.426;26.644;2023-12-14T07:39:44;98269.84;;;7.96;100.00
80149;BME280;69473;42.426;26.644;2023-12-14T07:42:09;98254.34;;;7.99;100.00
80149;BME280;69473;42.426;26.644;2023-12-14T07:44:35;98254.34;;;8.05;100.00
80149;BME280;69473;42.426;26.644;2023-12-14T07:47:01;98245.69;;;8.09;100.00
80149;BME280;69473;42.426;26.644;2023-12-14T07:49:27;98249.97;;;8.15;100.00
80149;BME280;69473;42.426;26.644;2023-12-14T07:51:53;98237.94;;;8.16;100.00
80149;BME280;69473;42.426;26.644;2023-12-14T07:54:19;98261.13;;;8.26;100.00
80149;BME280;69473;42.426;26.644;2023-12-14T07:56:44;98257.63;;;8.33;100.00
80149;BME280;69473;42.426;26.644;2023-12-14T07:59:11;98262.78;;;8.44;100.00
80149;BME280;69473;42.426;26.644;2023-12-14T08:01:36;98255.84;;;8.46;100.00
80149;BME280;69473;42.426;26.644;2023-12-14T08:04:02;98255.84;;;8.49;100.00
80149;BME280;69473;42.426;26.644;2023-12-14T08:06:29;98257.53;;;8.53;100.00
80149;BME280;69473;42.426;26.644;2023-12-14T08:08:55;98257.53;;;8.53;100.00
80149;BME280;69473;42.426;26.644;2023-12-14T08:11:24;98255.78;;;8.59;100.00
80149;BME280;69473;42.426;26.644;2023-12-14T08:13:50;98260.06;;;8.61;100.00
80149;BME280;69473;42.426;26.644;2023-12-14T08:16:15;98262.59;;;8.69;100.00
80149;BME280;69473;42.426;26.644;2023-12-14T08:18:43;98272.91;;;8.69;100.00
80149;BME280;69473;42.426;26.644;2023-12-14T08:21:11;98262.56;;;8.75;100.00
80149;BME280;69473;42.426;26.644;2023-12-14T08:23:37;98261.63;;;8.84;100.00
80149;BME280;69473;42.426;26.644;2023-12-14T08:26:03;98260.72;;;8.89;100.00
80149;BME280;69473;42.426;26.644;2023-12-14T08:28:28;98252.06;;;8.93;100.00
80149;BME280;69473;42.426;26.644;2023-12-14T08:30:55;98263.13;;;9.09;100.00
80149;BME280;69473;42.426;26.644;2023-12-14T08:33:23;98270.78;;;9.23;100.00
80149;BME280;69473;42.426;26.644;2023-12-14T08:35:49;98261.22;;;9.31;100.00
80149;BME280;69473;42.426;26.644;2023-12-14T08:38:16;98256.78;;;9.45;100.00
80149;BME280;69473;42.426;26.644;2023-12-14T08:40:42;98251.59;;;9.48;100.00
80149;BME280;69473;42.426;26.644;2023-12-14T08:43:07;98258.47;;;9.49;100.00
80149;BME280;69473;42.426;26.644;2023-12-14T08:45:33;98258.38;;;9.59;100.00
80149;BME280;69473;42.426;26.644;2023-12-14T08:47:59;98256.59;;;9.64;100.00
80149;BME280;69473;42.426;26.644;2023-12-14T08:50:24;98257.44;;;9.64;100.00
80149;BME280;69473;42.426;26.644;2023-12-14T08:52:52;98249.72;;;9.63;100.00
80149;BME280;69473;42.426;26.644;2023-12-14T08:55:18;98258.22;;;9.71;100.00
80149;BME280;69473;42.426;26.644;2023-12-14T08:57:44;98249.56;;;9.78;100.00
80149;BME280;69473;42.426;26.644;2023-12-14T09:00:10;98246.03;;;9.82;100.00
80149;BME280;69473;42.426;26.644;2023-12-14T09:02:36;98256.31;;;9.88;100.00
80149;BME280;69473;42.426;26.644;2023-12-14T09:05:02;98247.63;;;9.92;100.00
80149;BME280;69473;42.426;26.644;2023-12-14T09:07:28;98239.00;;;9.93;100.00
80149;BME280;69473;42.426;26.644;2023-12-14T09:09:53;98244.13;;;9.97;100.00
80149;BME280;69473;42.426;26.644;2023-12-14T09:12:19;98231.22;;;9.95;100.00
80149;BME280;69473;42.426;26.644;2023-12-14T09:14:45;98227.75;;;9.96;100.00
80149;BME280;69473;42.426;26.644;2023-12-14T09:17:10;98231.97;;;10.05;100.00
80149;BME280;69473;42.426;26.644;2023-12-14T09:19:36;98230.13;;;10.13;100.00
80149;BME280;69473;42.426;26.644;2023-12-14T09:22:01;98224.78;;;10.28;100.00
80149;BME280;69473;42.426;26.644;2023-12-14T09:24:27;98214.25;;;10.40;100.00
80149;BME280;69473;42.426;26.644;2023-12-14T09:26:53;98215.09;;;10.41;100.00
80149;BME280;69473;42.426;26.644;2023-12-14T09:29:18;98223.69;;;10.45;100.00
80149;BME280;69473;42.426;26.644;2023-12-14T09:31:45;98217.66;;;10.43;100.00
80149;BME280;69473;42.426;26.644;2023-12-14T09:34:12;98219.44;;;10.40;100.00
80149;BME280;69473;42.426;26.644;2023-12-14T09:36:38;98219.44;;;10.40;100.00
80149;BME280;69473;42.426;26.644;2023-12-14T09:39:04;98215.03;;;10.46;100.00
80149;BME280;69473;42.426;26.644;2023-12-14T09:41:30;98213.38;;;10.40;100.00
80149;BME280;69473;42.426;26.644;2023-12-14T09:43:56;98207.44;;;10.33;100.00
80149;BME280;69473;42.426;26.644;2023-12-14T09:46:23;98216.13;;;10.29;100.00
80149;BME280;69473;42.426;26.644;2023-12-14T09:48:52;98212.66;;;10.30;100.00
80149;BME280;69473;42.426;26.644;2023-12-14T09:51:19;98205.81;;;10.23;100.00
80149;BME280;69473;42.426;26.644;2023-12-14T09:53:45;98204.06;;;10.28;100.00
80149;BME280;69473;42.426;26.644;2023-12-14T09:56:10;98206.63;;;10.31;100.00
80149;BME280;69473;42.426;26.644;2023-12-14T09:58:36;98211.84;;;10.27;100.00
80149;BME280;69473;42.426;26.644;2023-12-14T10:01:02;98200.75;;;10.17;100.00
80149;BME280;69473;42.426;26.644;2023-12-14T10:03:30;98199.75;;;10.26;100.00
80149;BME280;69473;42.426;26.644;2023-12-14T10:05:59;98209.13;;;10.37;100.00
80149;BME280;69473;42.426;26.644;2023-12-14T10:08:27;98196.09;;;10.44;100.00
80149;BME280;69473;42.426;26.644;2023-12-14T10:10:54;98184.75;;;10.51;100.00
80149;BME280;69473;42.426;26.644;2023-12-14T10:13:35;98176.97;;;10.49;100.00
80149;BME280;69473;42.426;26.644;2023-12-14T10:16:02;98180.50;;;10.45;100.00
80149;BME280;69473;42.426;26.644;2023-12-14T10:18:31;98176.13;;;10.49;100.00
80149;BME280;69473;42.426;26.644;2023-12-14T10:20:59;98182.72;;;10.68;100.00
80149;BME280;69473;42.426;26.644;2023-12-14T10:23:27;98185.06;;;10.83;100.00
80149;BME280;69473;42.426;26.644;2023-12-14T10:25:52;98180.31;;;11.10;100.00
80149;BME280;69473;42.426;26.644;2023-12-14T10:28:18;98183.47;;;11.24;100.00
80149;BME280;69473;42.426;26.644;2023-12-14T10:30:44;98186.91;;;11.26;99.93
80149;BME280;69473;42.426;26.644;2023-12-14T10:33:09;98178.13;;;11.33;99.22
80149;BME280;69473;42.426;26.644;2023-12-14T10:35:35;98179.75;;;11.41;97.85
80149;BME280;69473;42.426;26.644;2023-12-14T10:38:05;98171.06;;;11.42;97.18
80149;BME280;69473;42.426;26.644;2023-12-14T10:40:34;98173.72;;;11.39;94.77
80149;BME280;69473;42.426;26.644;2023-12-14T10:43:03;98158.25;;;11.34;95.70
80149;BME280;69473;42.426;26.644;2023-12-14T10:45:32;98173.00;;;11.30;94.35
80149;BME280;69473;42.426;26.644;2023-12-14T10:47:59;98164.34;;;11.31;93.63
80149;BME280;69473;42.426;26.644;2023-12-14T10:50:28;98168.59;;;11.36;92.66
80149;BME280;69473;42.426;26.644;2023-12-14T10:52:55;98171.19;;;11.36;93.30
80149;BME280;69473;42.426;26.644;2023-12-14T10:55:44;98166.09;;;11.29;92.91
80149;BME280;69473;42.426;26.644;2023-12-14T10:58:11;98160.88;;;11.32;92.18
80149;BME280;69473;42.426;26.644;2023-12-14T11:00:37;98155.56;;;11.39;92.52
80149;BME280;69473;42.426;26.644;2023-12-14T11:03:06;98158.75;;;11.53;90.41
80149;BME280;69473;42.426;26.644;2023-12-14T11:05:33;98160.50;;;11.51;90.30
80149;BME280;69473;42.426;26.644;2023-12-14T11:08:06;98147.50;;;11.52;89.77
80149;BME280;69473;42.426;26.644;2023-12-14T11:10:40;98144.75;;;11.60;88.74
80149;BME280;69473;42.426;26.644;2023-12-14T11:13:08;98140.09;;;11.77;89.09
80149;BME280;69473;42.426;26.644;2023-12-14T11:15:37;98131.50;;;12.86;85.27
80149;BME280;69473;42.426;26.644;2023-12-14T11:23:10;98120.41;;;15.35;73.46
80149;BME280;69473;42.426;26.644;2023-12-14T11:25:40;98107.69;;;14.49;71.81
80149;BME280;69473;42.426;26.644;2023-12-14T11:28:06;98109.56;;;13.29;77.17
80149;BME280;69473;42.426;26.644;2023-12-14T11:30:36;98110.22;;;12.71;80.18
80149;BME280;69473;42.426;26.644;2023-12-14T11:33:03;98102.72;;;12.59;81.46
80149;BME280;69473;42.426;26.644;2023-12-14T11:35:29;98110.00;;;12.45;81.16
80149;BME280;69473;42.426;26.644;2023-12-14T11:37:58;98117.00;;;12.43;82.21
80149;BME280;69473;42.426;26.644;2023-12-14T11:40:25;98110.69;;;12.53;82.49
80149;BME280;69473;42.426;26.644;2023-12-14T11:42:58;98111.84;;;13.08;79.46
80149;BME280;69473;42.426;26.644;2023-12-14T11:45:24;98105.69;;;13.11;79.56
80149;BME280;69473;42.426;26.644;2023-12-14T11:47:51;98103.13;;;13.42;76.90
80149;BME280;69473;42.426;26.644;2023-12-14T11:50:17;98108.53;;;13.66;76.45
80149;BME280;69473;42.426;26.644;2023-12-14T11:52:43;98117.06;;;13.71;76.83
80149;BME280;69473;42.426;26.644;2023-12-14T11:55:12;98127.19;;;13.17;76.60
80149;BME280;69473;42.426;26.644;2023-12-14T11:57:38;98119.16;;;12.94;78.18
80149;BME280;69473;42.426;26.644;2023-12-14T12:00:04;98120.41;;;12.79;80.26
80149;BME280;69473;42.426;26.644;2023-12-14T12:02:32;98119.56;;;12.79;80.32
80149;BME280;69473;42.426;26.644;2023-12-14T12:04:58;98109.69;;;12.57;79.34
80149;BME280;69473;42.426;26.644;2023-12-14T12:07:23;98114.63;;;12.32;81.37
80149;BME280;69473;42.426;26.644;2023-12-14T12:09:49;98112.44;;;12.15;82.72
80149;BME280;69473;42.426;26.644;2023-12-14T12:12:14;98118.63;;;12.10;82.51
80149;BME280;69473;42.426;26.644;2023-12-14T12:14:41;98114.63;;;11.95;84.28
80149;BME280;69473;42.426;26.644;2023-12-14T12:17:07;98113.94;;;11.87;84.75
80149;BME280;69473;42.426;26.644;2023-12-14T12:19:34;98118.31;;;11.85;84.94
80149;BME280;69473;42.426;26.644;2023-12-14T12:22:00;98106.41;;;11.74;84.81
80149;BME280;69473;42.426;26.644;2023-12-14T12:24:26;98103.06;;;11.69;85.22
80149;BME280;69473;42.426;26.644;2023-12-14T12:26:51;98104.94;;;11.61;86.83
80149;BME280;69473;42.426;26.644;2023-12-14T12:29:17;98105.06;;;11.55;87.31
80149;BME280;69473;42.426;26.644;2023-12-14T12:31:42;98099.94;;;11.52;88.54
80149;BME280;69473;42.426;26.644;2023-12-14T12:34:08;98112.13;;;11.50;87.47
80149;BME280;69473;42.426;26.644;2023-12-14T12:36:34;98103.44;;;11.51;87.08
80149;BME280;69473;42.426;26.644;2023-12-14T12:39:00;98100.97;;;11.45;87.17
80149;BME280;69473;42.426;26.644;2023-12-14T12:41:25;98100.31;;;11.35;87.96
80149;BME280;69473;42.426;26.644;2023-12-14T12:43:51;98097.09;;;11.22;89.45
80149;BME280;69473;42.426;26.644;2023-12-14T12:46:17;98104.97;;;11.18;90.38
80149;BME280;69473;42.426;26.644;2023-12-14T12:48:43;98105.81;;;11.18;91.47
80149;BME280;69473;42.426;26.644;2023-12-14T12:51:09;98104.03;;;11.20;91.36
80149;BME280;69473;42.426;26.644;2023-12-14T12:53:35;98097.16;;;11.19;90.93